sensor_id;sensor_type;location;lat;lon;timestamp;temperature;humidity
16907;DHT22;8570;52.380;4.654;2022-11-27T00:01:17;6.90;99.90
16907;DHT22;8570;52.380;4.654;2022-11-27T00:06:21;6.80;99.90
16907;DHT22;8570;52.380;4.654;2022-11-27T00:11:26;6.80;99.90
16907;DHT22;8570;52.380;4.654;2022-11-27T00:16:29;6.80;99.90
16907;DHT22;8570;52.380;4.654;2022-11-27T00:21:33;6.80;99.90
16907;DHT22;8570;52.380;4.654;2022-11-27T00:26:35;6.80;99.90
16907;DHT22;8570;52.380;4.654;2022-11-27T00:31:39;6.80;99.90
16907;DHT22;8570;52.380;4.654;2022-11-27T00:36:40;6.80;99.90
16907;DHT22;8570;52.380;4.654;2022-11-27T00:41:43;6.80;99.90
16907;DHT22;8570;52.380;4.654;2022-11-27T00:46:46;6.80;99.90
16907;DHT22;8570;52.380;4.654;2022-11-27T00:51:48;6.80;99.90
16907;DHT22;8570;52.380;4.654;2022-11-27T00:56:49;6.80;99.90
16907;DHT22;8570;52.380;4.654;2022-11-27T01:01:53;6.80;99.90
16907;DHT22;8570;52.380;4.654;2022-11-27T01:06:55;6.80;99.90
16907;DHT22;8570;52.380;4.654;2022-11-27T01:11:56;6.90;99.90
16907;DHT22;8570;52.380;4.654;2022-11-27T01:17:00;6.90;99.90
16907;DHT22;8570;52.380;4.654;2022-11-27T01:22:02;6.90;99.90
16907;DHT22;8570;52.380;4.654;2022-11-27T01:27:04;6.90;99.90
16907;DHT22;8570;52.380;4.654;2022-11-27T01:32:07;6.90;99.90
16907;DHT22;8570;52.380;4.654;2022-11-27T01:37:09;6.90;99.90
16907;DHT22;8570;52.380;4.654;2022-11-27T01:42:11;6.80;99.90
16907;DHT22;8570;52.380;4.654;2022-11-27T01:47:19;6.90;99.90
16907;DHT22;8570;52.380;4.654;2022-11-27T01:52:26;6.90;99.90
16907;DHT22;8570;52.380;4.654;2022-11-27T01:57:31;6.80;99.90
16907;DHT22;8570;52.380;4.654;2022-11-27T02:02:36;6.80;99.90
16907;DHT22;8570;52.380;4.654;2022-11-27T02:07:38;6.80;99.90
16907;DHT22;8570;52.380;4.654;2022-11-27T02:12:46;6.80;99.90
16907;DHT22;8570;52.380;4.654;2022-11-27T02:17:56;6.80;99.90
16907;DHT22;8570;52.380;4.654;2022-11-27T02:28:37;6.80;99.90
16907;DHT22;8570;52.380;4.654;2022-11-27T02:33:45;6.80;99.90
16907;DHT22;8570;52.380;4.654;2022-11-27T02:38:54;6.80;99.90
16907;DHT22;8570;52.380;4.654;2022-11-27T02:43:59;6.80;99.90
16907;DHT22;8570;52.380;4.654;2022-11-27T02:49:05;6.80;99.90
16907;DHT22;8570;52.380;4.654;2022-11-27T02:54:10;6.80;99.90
16907;DHT22;8570;52.380;4.654;2022-11-27T02:59:17;6.80;99.90
16907;DHT22;8570;52.380;4.654;2022-11-27T03:04:27;6.80;99.90
16907;DHT22;8570;52.380;4.654;2022-11-27T03:09:34;6.80;99.90
16907;DHT22;8570;52.380;4.654;2022-11-27T03:14:37;6.80;99.90
16907;DHT22;8570;52.380;4.654;2022-11-27T03:19:46;6.80;99.90
16907;DHT22;8570;52.380;4.654;2022-11-27T03:24:48;6.80;99.90
16907;DHT22;8570;52.380;4.654;2022-11-27T03:29:52;6.80;99.90
16907;DHT22;8570;52.380;4.654;2022-11-27T03:34:57;6.80;99.90
16907;DHT22;8570;52.380;4.654;2022-11-27T03:39:58;6.80;99.90
16907;DHT22;8570;52.380;4.654;2022-11-27T03:45:09;6.80;99.90
16907;DHT22;8570;52.380;4.654;2022-11-27T03:50:24;6.80;99.90
16907;DHT22;8570;52.380;4.654;2022-11-27T03:55:34;6.70;99.90
16907;DHT22;8570;52.380;4.654;2022-11-27T04:00:41;6.80;99.90
16907;DHT22;8570;52.380;4.654;2022-11-27T04:05:44;6.70;99.90
16907;DHT22;8570;52.380;4.654;2022-11-27T04:10:46;6.80;99.90
16907;DHT22;8570;52.380;4.654;2022-11-27T04:15:48;6.80;99.90
16907;DHT22;8570;52.380;4.654;2022-11-27T04:20:52;6.80;99.90
16907;DHT22;8570;52.380;4.654;2022-11-27T04:25:53;6.80;99.90
16907;DHT22;8570;52.380;4.654;2022-11-27T04:30:55;6.80;99.90
16907;DHT22;8570;52.380;4.654;2022-11-27T04:35:59;6.80;99.90
16907;DHT22;8570;52.380;4.654;2022-11-27T04:41:00;6.80;99.90
16907;DHT22;8570;52.380;4.654;2022-11-27T04:46:02;6.80;99.90
16907;DHT22;8570;52.380;4.654;2022-11-27T04:51:06;6.90;99.90
16907;DHT22;8570;52.380;4.654;2022-11-27T04:56:08;6.90;99.90
16907;DHT22;8570;52.380;4.654;2022-11-27T05:01:10;6.90;99.90
16907;DHT22;8570;52.380;4.654;2022-11-27T05:06:13;6.90;99.90
16907;DHT22;8570;52.380;4.654;2022-11-27T05:11:16;6.90;99.90
16907;DHT22;8570;52.380;4.654;2022-11-27T05:16:18;6.90;99.90
16907;DHT22;8570;52.380;4.654;2022-11-27T05:21:21;6.90;99.90
16907;DHT22;8570;52.380;4.654;2022-11-27T05:26:23;6.90;99.90
16907;DHT22;8570;52.380;4.654;2022-11-27T05:31:25;6.90;99.90
16907;DHT22;8570;52.380;4.654;2022-11-27T05:36:28;6.90;99.90
16907;DHT22;8570;52.380;4.654;2022-11-27T05:41:30;6.90;99.90
16907;DHT22;8570;52.380;4.654;2022-11-27T05:46:32;6.80;99.90
16907;DHT22;8570;52.380;4.654;2022-11-27T05:51:36;6.80;99.90
16907;DHT22;8570;52.380;4.654;2022-11-27T05:56:38;6.80;99.90
16907;DHT22;8570;52.380;4.654;2022-11-27T06:01:40;6.80;99.90
16907;DHT22;8570;52.380;4.654;2022-11-27T06:06:44;6.80;99.90
16907;DHT22;8570;52.380;4.654;2022-11-27T06:11:46;6.80;99.90
16907;DHT22;8570;52.380;4.654;2022-11-27T06:16:48;6.80;99.90
16907;DHT22;8570;52.380;4.654;2022-11-27T06:21:51;6.80;99.90
16907;DHT22;8570;52.380;4.654;2022-11-27T06:26:53;6.80;99.90
16907;DHT22;8570;52.380;4.654;2022-11-27T06:31:55;6.80;99.90
16907;DHT22;8570;52.380;4.654;2022-11-27T06:36:58;6.70;99.90
16907;DHT22;8570;52.380;4.654;2022-11-27T06:42:00;6.70;99.90
16907;DHT22;8570;52.380;4.654;2022-11-27T06:47:01;6.70;99.90
16907;DHT22;8570;52.380;4.654;2022-11-27T06:52:05;6.70;99.90
16907;DHT22;8570;52.380;4.654;2022-11-27T06:57:07;6.80;99.90
16907;DHT22;8570;52.380;4.654;2022-11-27T07:02:10;6.70;99.90
16907;DHT22;8570;52.380;4.654;2022-11-27T07:07:15;6.70;99.90
16907;DHT22;8570;52.380;4.654;2022-11-27T07:12:17;6.70;99.90
16907;DHT22;8570;52.380;4.654;2022-11-27T07:17:19;6.80;99.90
16907;DHT22;8570;52.380;4.654;2022-11-27T07:22:22;6.80;99.90
16907;DHT22;8570;52.380;4.654;2022-11-27T07:27:25;6.70;99.90
16907;DHT22;8570;52.380;4.654;2022-11-27T07:32:27;6.70;99.90
16907;DHT22;8570;52.380;4.654;2022-11-27T07:37:31;6.70;99.90
16907;DHT22;8570;52.380;4.654;2022-11-27T07:42:33;6.70;99.90
16907;DHT22;8570;52.380;4.654;2022-11-27T07:47:35;6.70;99.90
16907;DHT22;8570;52.380;4.654;2022-11-27T07:52:38;6.70;99.90
16907;DHT22;8570;52.380;4.654;2022-11-27T07:57:40;6.70;99.90
16907;DHT22;8570;52.380;4.654;2022-11-27T08:02:42;6.70;99.90
16907;DHT22;8570;52.380;4.654;2022-11-27T08:07:46;6.70;99.90
16907;DHT22;8570;52.380;4.654;2022-11-27T08:12:48;6.70;99.90
16907;DHT22;8570;52.380;4.654;2022-11-27T08:17:50;6.70;99.90
16907;DHT22;8570;52.380;4.654;2022-11-27T08:22:58;6.70;99.90
16907;DHT22;8570;52.380;4.654;2022-11-27T08:28:01;6.80;99.90
16907;DHT22;8570;52.380;4.654;2022-11-27T08:33:03;6.70;99.90
16907;DHT22;8570;52.380;4.654;2022-11-27T08:38:06;6.70;99.90
16907;DHT22;8570;52.380;4.654;2022-11-27T08:43:08;6.80;99.90
16907;DHT22;8570;52.380;4.654;2022-11-27T08:48:10;6.80;99.90
16907;DHT22;8570;52.380;4.654;2022-11-27T08:53:14;6.80;99.90
16907;DHT22;8570;52.380;4.654;2022-11-27T08:58:16;6.80;99.90
16907;DHT22;8570;52.380;4.654;2022-11-27T09:03:18;6.80;99.90
16907;DHT22;8570;52.380;4.654;2022-11-27T09:08:21;6.80;99.90
16907;DHT22;8570;52.380;4.654;2022-11-27T09:13:23;6.80;99.90
16907;DHT22;8570;52.380;4.654;2022-11-27T09:18:25;6.80;99.90
16907;DHT22;8570;52.380;4.654;2022-11-27T09:23:28;6.80;99.90
16907;DHT22;8570;52.380;4.654;2022-11-27T09:28:31;6.80;99.90
16907;DHT22;8570;52.380;4.654;2022-11-27T09:33:36;6.80;99.90
16907;DHT22;8570;52.380;4.654;2022-11-27T09:38:40;6.80;99.90
16907;DHT22;8570;52.380;4.654;2022-11-27T09:43:47;6.80;99.90
16907;DHT22;8570;52.380;4.654;2022-11-27T09:48:50;6.80;99.90
16907;DHT22;8570;52.380;4.654;2022-11-27T09:54:00;6.80;99.90
16907;DHT22;8570;52.380;4.654;2022-11-27T09:59:13;6.80;99.90
16907;DHT22;8570;52.380;4.654;2022-11-27T10:04:17;6.90;99.90
16907;DHT22;8570;52.380;4.654;2022-11-27T10:09:28;6.90;99.90
16907;DHT22;8570;52.380;4.654;2022-11-27T10:14:45;6.90;99.90
16907;DHT22;8570;52.380;4.654;2022-11-27T10:19:59;6.90;99.90
16907;DHT22;8570;52.380;4.654;2022-11-27T10:25:15;6.90;99.90
16907;DHT22;8570;52.380;4.654;2022-11-27T10:30:20;6.90;99.90
16907;DHT22;8570;52.380;4.654;2022-11-27T10:35:24;6.90;99.90
16907;DHT22;8570;52.380;4.654;2022-11-27T10:40:32;6.90;99.90
16907;DHT22;8570;52.380;4.654;2022-11-27T10:45:40;6.90;99.90
16907;DHT22;8570;52.380;4.654;2022-11-27T10:50:44;6.90;99.90
16907;DHT22;8570;52.380;4.654;2022-11-27T10:56:04;6.90;99.90
16907;DHT22;8570;52.380;4.654;2022-11-27T11:01:13;7.00;99.90
16907;DHT22;8570;52.380;4.654;2022-11-27T11:06:18;7.00;99.90
16907;DHT22;8570;52.380;4.654;2022-11-27T11:11:25;7.00;99.90
16907;DHT22;8570;52.380;4.654;2022-11-27T11:16:28;7.00;99.90
16907;DHT22;8570;52.380;4.654;2022-11-27T11:21:32;7.10;99.90
16907;DHT22;8570;52.380;4.654;2022-11-27T11:26:38;7.10;99.90
16907;DHT22;8570;52.380;4.654;2022-11-27T11:31:41;7.10;99.90
16907;DHT22;8570;52.380;4.654;2022-11-27T11:36:54;7.10;99.90
16907;DHT22;8570;52.380;4.654;2022-11-27T11:41:58;7.10;99.90
16907;DHT22;8570;52.380;4.654;2022-11-27T11:47:00;7.20;99.90
16907;DHT22;8570;52.380;4.654;2022-11-27T11:52:11;7.20;99.90
16907;DHT22;8570;52.380;4.654;2022-11-27T11:57:59;7.20;99.90
16907;DHT22;8570;52.380;4.654;2022-11-27T12:03:17;7.20;99.90
16907;DHT22;8570;52.380;4.654;2022-11-27T12:08:33;7.20;99.90
16907;DHT22;8570;52.380;4.654;2022-11-27T12:13:53;7.20;99.90
16907;DHT22;8570;52.380;4.654;2022-11-27T12:19:14;7.20;99.90
16907;DHT22;8570;52.380;4.654;2022-11-27T12:24:29;7.20;99.90
16907;DHT22;8570;52.380;4.654;2022-11-27T12:35:23;7.20;99.90
16907;DHT22;8570;52.380;4.654;2022-11-27T12:40:36;7.20;99.90
16907;DHT22;8570;52.380;4.654;2022-11-27T12:46:10;7.30;99.90
16907;DHT22;8570;52.380;4.654;2022-11-27T12:51:21;7.50;99.90
16907;DHT22;8570;52.380;4.654;2022-11-27T12:56:29;7.80;99.90
16907;DHT22;8570;52.380;4.654;2022-11-27T13:01:37;7.90;99.90
16907;DHT22;8570;52.380;4.654;2022-11-27T13:06:47;7.70;99.90
16907;DHT22;8570;52.380;4.654;2022-11-27T13:11:50;7.60;99.90
16907;DHT22;8570;52.380;4.654;2022-11-27T13:16:58;7.50;99.90
16907;DHT22;8570;52.380;4.654;2022-11-27T13:22:07;7.40;99.90
16907;DHT22;8570;52.380;4.654;2022-11-27T13:27:14;7.40;99.90
16907;DHT22;8570;52.380;4.654;2022-11-27T13:32:19;7.40;99.90
16907;DHT22;8570;52.380;4.654;2022-11-27T13:37:29;7.40;99.90
16907;DHT22;8570;52.380;4.654;2022-11-27T13:42:33;7.30;99.90
16907;DHT22;8570;52.380;4.654;2022-11-27T13:47:39;7.30;99.90
16907;DHT22;8570;52.380;4.654;2022-11-27T15:42:28;7.30;99.90
16907;DHT22;8570;52.380;4.654;2022-11-27T15:47:32;7.30;99.90
16907;DHT22;8570;52.380;4.654;2022-11-27T15:52:35;7.30;99.90
16907;DHT22;8570;52.380;4.654;2022-11-27T15:57:38;7.30;99.90
16907;DHT22;8570;52.380;4.654;2022-11-27T16:02:41;7.30;99.90
16907;DHT22;8570;52.380;4.654;2022-11-27T16:07:43;7.30;99.90
16907;DHT22;8570;52.380;4.654;2022-11-27T16:12:46;7.30;99.90
16907;DHT22;8570;52.380;4.654;2022-11-27T16:17:50;7.30;99.90
16907;DHT22;8570;52.380;4.654;2022-11-27T16:22:53;7.30;99.90
16907;DHT22;8570;52.380;4.654;2022-11-27T16:27:56;7.30;99.90
16907;DHT22;8570;52.380;4.654;2022-11-27T16:32:58;7.30;99.90
16907;DHT22;8570;52.380;4.654;2022-11-27T16:38:00;7.30;99.90
16907;DHT22;8570;52.380;4.654;2022-11-27T16:43:03;7.30;99.90
16907;DHT22;8570;52.380;4.654;2022-11-27T16:48:06;7.30;99.90
16907;DHT22;8570;52.380;4.654;2022-11-27T16:53:07;7.30;99.90
16907;DHT22;8570;52.380;4.654;2022-11-27T16:58:11;7.40;99.90
16907;DHT22;8570;52.380;4.654;2022-11-27T17:03:14;7.40;99.90
16907;DHT22;8570;52.380;4.654;2022-11-27T17:08:16;7.40;99.90
16907;DHT22;8570;52.380;4.654;2022-11-27T17:13:19;7.40;99.90
16907;DHT22;8570;52.380;4.654;2022-11-27T17:18:23;7.40;99.90
16907;DHT22;8570;52.380;4.654;2022-11-27T17:23:25;7.40;99.90
16907;DHT22;8570;52.380;4.654;2022-11-27T17:28:29;7.40;99.90
16907;DHT22;8570;52.380;4.654;2022-11-27T17:33:30;7.40;99.90
16907;DHT22;8570;52.380;4.654;2022-11-27T17:38:32;7.40;99.90
16907;DHT22;8570;52.380;4.654;2022-11-27T17:43:36;7.40;99.90
16907;DHT22;8570;52.380;4.654;2022-11-27T17:48:38;7.40;99.90
16907;DHT22;8570;52.380;4.654;2022-11-27T17:53:40;7.40;99.90
16907;DHT22;8570;52.380;4.654;2022-11-27T17:58:43;7.40;99.90
16907;DHT22;8570;52.380;4.654;2022-11-27T18:03:46;7.40;99.90
16907;DHT22;8570;52.380;4.654;2022-11-27T18:08:48;7.40;99.90
16907;DHT22;8570;52.380;4.654;2022-11-27T18:13:51;7.40;99.90
16907;DHT22;8570;52.380;4.654;2022-11-27T18:18:53;7.40;99.90
16907;DHT22;8570;52.380;4.654;2022-11-27T18:23:55;7.40;99.90
16907;DHT22;8570;52.380;4.654;2022-11-27T18:28:58;7.50;99.90
16907;DHT22;8570;52.380;4.654;2022-11-27T18:34:00;7.50;99.90
16907;DHT22;8570;52.380;4.654;2022-11-27T18:39:02;7.40;99.90
16907;DHT22;8570;52.380;4.654;2022-11-27T18:44:06;7.40;99.90
16907;DHT22;8570;52.380;4.654;2022-11-27T18:49:08;7.40;99.90
16907;DHT22;8570;52.380;4.654;2022-11-27T18:54:10;7.40;99.90
16907;DHT22;8570;52.380;4.654;2022-11-27T18:59:13;7.40;99.90
16907;DHT22;8570;52.380;4.654;2022-11-27T19:04:15;7.40;99.90
16907;DHT22;8570;52.380;4.654;2022-11-27T19:09:18;7.40;99.90
16907;DHT22;8570;52.380;4.654;2022-11-27T19:14:22;7.40;99.90
16907;DHT22;8570;52.380;4.654;2022-11-27T19:19:24;7.40;99.90
16907;DHT22;8570;52.380;4.654;2022-11-27T19:24:26;7.40;99.90
16907;DHT22;8570;52.380;4.654;2022-11-27T19:29:29;7.40;99.90
16907;DHT22;8570;52.380;4.654;2022-11-27T19:34:31;7.30;99.90
16907;DHT22;8570;52.380;4.654;2022-11-27T19:39:33;7.30;99.90
16907;DHT22;8570;52.380;4.654;2022-11-27T19:44:36;7.30;99.90
16907;DHT22;8570;52.380;4.654;2022-11-27T19:49:38;7.30;99.90
16907;DHT22;8570;52.380;4.654;2022-11-27T19:54:40;7.20;99.90
16907;DHT22;8570;52.380;4.654;2022-11-27T19:59:47;7.20;99.90
16907;DHT22;8570;52.380;4.654;2022-11-27T20:04:53;7.20;99.90
16907;DHT22;8570;52.380;4.654;2022-11-27T20:09:55;7.20;99.90
16907;DHT22;8570;52.380;4.654;2022-11-27T20:15:00;7.20;99.90
16907;DHT22;8570;52.380;4.654;2022-11-27T20:20:02;7.20;99.90
16907;DHT22;8570;52.380;4.654;2022-11-27T20:25:04;7.20;99.90
16907;DHT22;8570;52.380;4.654;2022-11-27T20:30:09;7.20;99.90
16907;DHT22;8570;52.380;4.654;2022-11-27T20:35:11;7.20;99.90
16907;DHT22;8570;52.380;4.654;2022-11-27T20:40:13;7.20;99.90
16907;DHT22;8570;52.380;4.654;2022-11-27T20:45:21;7.20;99.90
16907;DHT22;8570;52.380;4.654;2022-11-27T20:50:23;7.20;99.90
16907;DHT22;8570;52.380;4.654;2022-11-27T20:55:25;7.20;99.90
16907;DHT22;8570;52.380;4.654;2022-11-27T21:00:28;7.20;99.90
16907;DHT22;8570;52.380;4.654;2022-11-27T21:05:30;7.20;99.90
16907;DHT22;8570;52.380;4.654;2022-11-27T21:10:32;7.20;99.90
16907;DHT22;8570;52.380;4.654;2022-11-27T21:15:35;7.20;99.90
16907;DHT22;8570;52.380;4.654;2022-11-27T21:20:37;7.20;99.90
16907;DHT22;8570;52.380;4.654;2022-11-27T21:25:40;7.20;99.90
16907;DHT22;8570;52.380;4.654;2022-11-27T21:30:44;7.20;99.90
16907;DHT22;8570;52.380;4.654;2022-11-27T21:35:46;7.20;99.90
16907;DHT22;8570;52.380;4.654;2022-11-27T21:40:48;7.10;99.90
16907;DHT22;8570;52.380;4.654;2022-11-27T21:45:51;7.10;99.90
16907;DHT22;8570;52.380;4.654;2022-11-27T21:50:59;7.10;99.90
16907;DHT22;8570;52.380;4.654;2022-11-27T21:56:03;7.10;99.90
16907;DHT22;8570;52.380;4.654;2022-11-27T22:01:10;7.10;99.90
16907;DHT22;8570;52.380;4.654;2022-11-27T22:06:13;7.10;99.90
16907;DHT22;8570;52.380;4.654;2022-11-27T22:11:18;7.10;99.90
16907;DHT22;8570;52.380;4.654;2022-11-27T22:16:23;7.10;99.90
16907;DHT22;8570;52.380;4.654;2022-11-27T22:21:26;7.10;99.90
16907;DHT22;8570;52.380;4.654;2022-11-27T22:26:28;7.10;99.90
16907;DHT22;8570;52.380;4.654;2022-11-27T22:31:32;7.10;99.90
16907;DHT22;8570;52.380;4.654;2022-11-27T22:36:34;7.10;99.90
16907;DHT22;8570;52.380;4.654;2022-11-27T22:41:38;7.10;99.90
16907;DHT22;8570;52.380;4.654;2022-11-27T22:46:42;7.10;99.90
16907;DHT22;8570;52.380;4.654;2022-11-27T22:51:44;7.10;99.90
16907;DHT22;8570;52.380;4.654;2022-11-27T22:56:47;7.10;99.90
16907;DHT22;8570;52.380;4.654;2022-11-27T23:01:50;7.10;99.90
16907;DHT22;8570;52.380;4.654;2022-11-27T23:06:52;7.10;99.90
16907;DHT22;8570;52.380;4.654;2022-11-27T23:11:56;7.10;99.90
16907;DHT22;8570;52.380;4.654;2022-11-27T23:17:00;7.20;99.90
16907;DHT22;8570;52.380;4.654;2022-11-27T23:22:01;7.20;99.90
16907;DHT22;8570;52.380;4.654;2022-11-27T23:27:03;7.20;99.90
16907;DHT22;8570;52.380;4.654;2022-11-27T23:32:07;7.20;99.90
16907;DHT22;8570;52.380;4.654;2022-11-27T23:37:08;7.20;99.90
16907;DHT22;8570;52.380;4.654;2022-11-27T23:42:10;7.20;99.90
16907;DHT22;8570;52.380;4.654;2022-11-27T23:47:14;7.20;99.90
16907;DHT22;8570;52.380;4.654;2022-11-27T23:52:16;7.20;99.90
16907;DHT22;8570;52.380;4.654;2022-11-27T23:57:18;7.20;99.90
